Time;durP1;ratioP1;P1;durP2;ratioP2;P2;SDS_P1;SDS_P2;PMS_P1;PMS_P2;Temp;Humidity;BMP_temperature;BMP_pressure;BME280_temperature;BME280_humidity;BME280_pressure;Samples;Min_cycle;Max_cycle;Signal;HPM_P1;HPM_P2
2022/05/25 00:00:56;;;;;;;9.10;7.93;;;;;;;;;;5051355;28;20609;-71
2022/05/25 00:03:24;;;;;;;8.40;7.70;;;;;;;;;;5042272;28;20617;-72
2022/05/25 00:05:53;;;;;;;8.77;7.80;;;;;;;;;;5041032;28;20572;-71
2022/05/25 00:08:21;;;;;;;8.47;7.67;;;;;;;;;;5042477;28;20245;-72
2022/05/25 00:10:49;;;;;;;8.17;7.40;;;;;;;;;;5040601;28;21106;-70
2022/05/25 00:13:19;;;;;;;10.13;8.00;;;;;;;;;;5040885;28;20785;-71
2022/05/25 00:15:48;;;;;;;8.73;7.70;;;;;;;;;;5039515;28;20227;-72
2022/05/25 00:18:16;;;;;;;8.33;7.33;;;;;;;;;;5041652;28;20231;-71
2022/05/25 00:20:44;;;;;;;8.70;7.80;;;;;;;;;;5041356;28;20241;-72
2022/05/25 00:23:12;;;;;;;9.30;7.77;;;;;;;;;;5040980;28;20214;-72
2022/05/25 00:25:40;;;;;;;7.80;7.07;;;;;;;;;;5041026;28;20207;-71
2022/05/25 00:28:11;;;;;;;8.63;7.03;;;;;;;;;;5041068;28;20246;-72
2022/05/25 00:30:41;;;;;;;8.00;7.27;;;;;;;;;;5042918;28;20221;-71
2022/05/25 00:33:10;;;;;;;7.30;6.50;;;;;;;;;;5041606;28;20222;-70
2022/05/25 00:35:38;;;;;;;7.07;6.47;;;;;;;;;;5040575;28;20718;-72
2022/05/25 00:38:08;;;;;;;6.90;6.17;;;;;;;;;;5042242;28;20228;-71
2022/05/25 00:40:38;;;;;;;7.60;6.00;;;;;;;;;;5044108;28;20711;-70
2022/05/25 00:43:06;;;;;;;7.40;6.00;;;;;;;;;;5050530;28;20261;-71
2022/05/25 00:45:37;;;;;;;7.83;5.90;;;;;;;;;;5044098;28;20213;-71
2022/05/25 00:48:07;;;;;;;6.83;5.63;;;;;;;;;;5041517;28;20287;-71
2022/05/25 00:53:19;;;;;;;6.40;5.30;;;;;;;;;;5040582;28;20210;-71
2022/05/25 00:55:47;;;;;;;5.20;4.70;;;;;;;;;;5041901;28;20219;-70
2022/05/25 00:58:15;;;;;;;6.87;5.17;;;;;;;;;;5041074;28;20227;-71
2022/05/25 01:00:44;;;;;;;5.43;4.83;;;;;;;;;;5040991;28;20203;-72
2022/05/25 01:03:15;;;;;;;5.50;5.00;;;;;;;;;;5041851;28;20214;-70
2022/05/25 01:06:02;;;;;;;5.80;5.17;;;;;;;;;;5040434;28;20226;-72
2022/05/25 01:08:35;;;;;;;5.30;4.80;;;;;;;;;;5040930;28;20288;-72
2022/05/25 01:11:10;;;;;;;5.57;4.93;;;;;;;;;;5040049;28;20268;-71
2022/05/25 01:13:43;;;;;;;5.93;4.70;;;;;;;;;;5042240;28;20250;-72
2022/05/25 01:16:15;;;;;;;6.93;5.00;;;;;;;;;;5041996;28;20215;-71
2022/05/25 01:18:48;;;;;;;4.73;4.33;;;;;;;;;;5049073;28;20219;-71
2022/05/25 01:21:20;;;;;;;5.13;4.63;;;;;;;;;;5040411;28;20203;-72
2022/05/25 01:24:00;;;;;;;5.60;5.00;;;;;;;;;;5041197;28;20204;-70
2022/05/25 01:26:44;;;;;;;5.63;5.00;;;;;;;;;;5044481;28;20211;-70
2022/05/25 01:29:23;;;;;;;5.37;4.63;;;;;;;;;;5045790;28;20219;-71
2022/05/25 01:31:56;;;;;;;5.70;4.43;;;;;;;;;;5044419;28;20268;-72
2022/05/25 01:34:26;;;;;;;6.50;4.90;;;;;;;;;;5044525;28;20210;-71
2022/05/25 01:36:58;;;;;;;5.80;5.20;;;;;;;;;;5043771;28;20226;-72
2022/05/25 01:39:27;;;;;;;5.20;4.70;;;;;;;;;;5044389;28;20204;-71
2022/05/25 01:41:58;;;;;;;6.07;4.80;;;;;;;;;;5043855;28;20205;-71
2022/05/25 01:44:28;;;;;;;5.20;4.70;;;;;;;;;;5045589;28;20207;-71
2022/05/25 01:46:59;;;;;;;5.50;4.70;;;;;;;;;;5044916;28;20222;-71
2022/05/25 01:49:32;;;;;;;5.57;5.00;;;;;;;;;;5043952;28;20761;-70
2022/05/25 01:52:02;;;;;;;5.23;4.77;;;;;;;;;;5044435;28;20206;-72
2022/05/25 01:54:32;;;;;;;5.30;4.80;;;;;;;;;;5043422;28;20566;-71
2022/05/25 01:57:05;;;;;;;5.33;4.83;;;;;;;;;;5044129;28;20313;-72
2022/05/25 01:59:33;;;;;;;6.30;5.10;;;;;;;;;;5045792;28;20249;-71
2022/05/25 02:04:51;;;;;;;5.73;5.23;;;;;;;;;;5043236;28;20207;-71
2022/05/25 02:07:26;;;;;;;5.30;4.80;;;;;;;;;;5042743;28;20948;-72
2022/05/25 02:10:03;;;;;;;5.90;5.33;;;;;;;;;;5042367;28;20225;-71
2022/05/25 02:12:39;;;;;;;7.40;5.10;;;;;;;;;;5043590;28;20241;-71
2022/05/25 02:15:12;;;;;;;5.80;5.20;;;;;;;;;;5043412;28;20199;-72
2022/05/25 02:17:49;;;;;;;6.73;5.77;;;;;;;;;;5042674;28;20242;-70
2022/05/25 02:20:21;;;;;;;6.10;5.50;;;;;;;;;;5043933;28;20229;-72
2022/05/25 02:22:51;;;;;;;6.13;5.33;;;;;;;;;;5043424;28;20208;-71
2022/05/25 02:25:23;;;;;;;6.20;5.67;;;;;;;;;;5042671;28;20204;-71
2022/05/25 02:27:55;;;;;;;6.53;5.90;;;;;;;;;;5043371;28;20678;-71
2022/05/25 02:30:25;;;;;;;6.87;6.13;;;;;;;;;;5043523;28;20211;-71
2022/05/25 02:32:58;;;;;;;6.77;5.80;;;;;;;;;;5043340;28;20904;-72
2022/05/25 02:35:27;;;;;;;7.83;5.97;;;;;;;;;;5042303;28;20195;-71
2022/05/25 02:37:59;;;;;;;6.97;6.27;;;;;;;;;;5051404;28;20226;-71
2022/05/25 02:40:28;;;;;;;6.53;5.93;;;;;;;;;;5049327;28;20207;-70
2022/05/25 02:42:56;;;;;;;6.53;5.93;;;;;;;;;;5043818;28;20199;-72
2022/05/25 02:45:25;;;;;;;6.93;6.23;;;;;;;;;;5042366;28;20222;-71
2022/05/25 02:47:55;;;;;;;7.10;6.33;;;;;;;;;;5043247;28;22071;-71
2022/05/25 02:50:23;;;;;;;7.07;6.37;;;;;;;;;;5043094;28;20219;-71
2022/05/25 02:52:52;;;;;;;6.70;6.10;;;;;;;;;;5043548;28;20210;-72
2022/05/25 02:55:20;;;;;;;7.20;6.57;;;;;;;;;;5042912;28;20269;-71
2022/05/25 02:57:49;;;;;;;7.13;6.53;;;;;;;;;;5043032;28;20219;-73
2022/05/25 03:00:17;;;;;;;8.90;7.20;;;;;;;;;;5042281;28;20723;-71
2022/05/25 03:02:46;;;;;;;8.17;6.90;;;;;;;;;;5042726;28;20211;-71
2022/05/25 03:05:16;;;;;;;8.07;7.17;;;;;;;;;;5042313;28;20213;-71
2022/05/25 03:07:44;;;;;;;9.50;7.33;;;;;;;;;;5042445;28;20223;-71
2022/05/25 03:10:12;;;;;;;8.07;7.27;;;;;;;;;;5041703;28;20248;-71
2022/05/25 03:12:42;;;;;;;10.53;7.80;;;;;;;;;;5043345;28;20211;-71
2022/05/25 03:15:11;;;;;;;9.17;7.87;;;;;;;;;;5041540;28;20225;-72
2022/05/25 03:17:40;;;;;;;9.27;7.67;;;;;;;;;;5042422;28;20230;-71
2022/05/25 03:20:09;;;;;;;11.50;8.30;;;;;;;;;;5042184;28;20203;-72
2022/05/25 03:22:44;;;;;;;8.87;8.07;;;;;;;;;;5042550;28;20203;-71
2022/05/25 03:25:12;;;;;;;9.17;8.27;;;;;;;;;;5042402;28;20218;-71
2022/05/25 03:27:41;;;;;;;8.47;7.67;;;;;;;;;;5043066;28;21378;-71
2022/05/25 03:30:10;;;;;;;8.20;7.33;;;;;;;;;;5041597;28;20203;-71
2022/05/25 03:32:38;;;;;;;8.93;7.93;;;;;;;;;;5042896;28;20207;-72
2022/05/25 03:35:08;;;;;;;8.73;7.83;;;;;;;;;;5043118;28;20277;-72
2022/05/25 03:37:39;;;;;;;9.77;7.53;;;;;;;;;;5042239;28;20231;-71
2022/05/25 03:40:10;;;;;;;9.20;8.10;;;;;;;;;;5042745;28;20260;-71
2022/05/25 03:42:40;;;;;;;8.70;7.70;;;;;;;;;;5042179;28;20195;-72
2022/05/25 03:45:09;;;;;;;11.43;8.30;;;;;;;;;;5042273;28;20596;-72
2022/05/25 03:47:37;;;;;;;11.10;8.50;;;;;;;;;;5042417;28;20557;-71
2022/05/25 03:50:06;;;;;;;10.10;8.97;;;;;;;;;;5042812;28;20267;-70
2022/05/25 03:52:35;;;;;;;9.83;8.90;;;;;;;;;;5042179;28;20207;-71
2022/05/25 03:55:05;;;;;;;10.53;9.40;;;;;;;;;;5042167;28;20248;-72
2022/05/25 03:57:34;;;;;;;11.77;10.57;;;;;;;;;;5047745;28;20231;-72
2022/05/25 04:00:02;;;;;;;11.03;9.93;;;;;;;;;;5050177;28;20650;-71
2022/05/25 04:02:31;;;;;;;12.70;10.23;;;;;;;;;;5043200;28;20211;-72
2022/05/25 04:05:08;;;;;;;12.27;10.97;;;;;;;;;;5041868;28;20203;-72
2022/05/25 04:07:37;;;;;;;11.37;10.27;;;;;;;;;;5040923;28;20215;-71
2022/05/25 04:10:11;;;;;;;11.53;10.33;;;;;;;;;;5041735;28;20203;-72
2022/05/25 04:12:39;;;;;;;11.20;10.07;;;;;;;;;;5039939;28;20229;-72
2022/05/25 04:15:08;;;;;;;11.47;10.37;;;;;;;;;;5042558;28;20666;-72
2022/05/25 04:17:36;;;;;;;11.60;10.20;;;;;;;;;;5041658;28;20289;-72
2022/05/25 04:20:06;;;;;;;13.70;10.33;;;;;;;;;;5041746;28;20606;-73
2022/05/25 04:22:35;;;;;;;13.30;11.20;;;;;;;;;;5042164;28;20203;-72
2022/05/25 04:25:04;;;;;;;12.13;10.83;;;;;;;;;;5041522;28;20199;-72
2022/05/25 04:27:34;;;;;;;11.90;10.70;;;;;;;;;;5042728;28;20223;-72
2022/05/25 04:30:02;;;;;;;11.60;10.50;;;;;;;;;;5042382;28;20260;-72
2022/05/25 04:32:32;;;;;;;12.30;11.07;;;;;;;;;;5042369;28;20203;-72
2022/05/25 04:35:00;;;;;;;12.00;10.80;;;;;;;;;;5042195;28;20249;-72
2022/05/25 04:40:31;;;;;;;13.10;10.43;;;;;;;;;;4967753;28;20206;-71
2022/05/25 04:43:02;;;;;;;14.93;10.93;;;;;;;;;;5029488;28;20203;-72
2022/05/25 04:45:31;;;;;;;12.93;10.27;;;;;;;;;;5038865;28;20223;-71
2022/05/25 04:48:01;;;;;;;13.17;10.73;;;;;;;;;;5041767;28;20219;-71
2022/05/25 04:50:30;;;;;;;15.20;10.83;;;;;;;;;;5039986;28;20211;-71
2022/05/25 04:52:59;;;;;;;11.70;10.47;;;;;;;;;;5041629;28;20207;-71
2022/05/25 04:58:29;;;;;;;13.03;10.03;;;;;;;;;;5043588;28;20231;-71
2022/05/25 05:00:58;;;;;;;16.83;10.40;;;;;;;;;;5044787;28;20254;-71
2022/05/25 05:03:27;;;;;;;10.97;9.87;;;;;;;;;;5046325;28;20268;-72
2022/05/25 05:05:56;;;;;;;11.10;9.63;;;;;;;;;;5043333;28;20249;-73
2022/05/25 05:08:25;;;;;;;11.90;10.40;;;;;;;;;;5045682;28;20249;-72
2022/05/25 05:10:54;;;;;;;11.87;10.17;;;;;;;;;;5043632;28;20261;-72
2022/05/25 05:13:24;;;;;;;10.83;9.77;;;;;;;;;;5046161;28;20199;-72
2022/05/25 05:15:55;;;;;;;10.83;9.73;;;;;;;;;;5051019;28;20203;-72
2022/05/25 05:18:24;;;;;;;12.67;9.80;;;;;;;;;;5054307;28;20702;-72
2022/05/25 05:20:52;;;;;;;11.17;9.87;;;;;;;;;;5055219;28;20207;-72
2022/05/25 05:23:21;;;;;;;11.70;10.37;;;;;;;;;;5052421;28;20211;-72
2022/05/25 05:25:49;;;;;;;11.93;9.50;;;;;;;;;;5054145;28;20207;-71
2022/05/25 05:28:20;;;;;;;10.80;9.47;;;;;;;;;;5046221;28;20227;-72
2022/05/25 05:30:52;;;;;;;12.80;9.33;;;;;;;;;;5054591;28;20211;-72
2022/05/25 05:33:21;;;;;;;11.57;9.70;;;;;;;;;;5055190;28;20294;-73
2022/05/25 05:35:50;;;;;;;10.07;9.07;;;;;;;;;;5053867;28;20253;-72
2022/05/25 05:38:19;;;;;;;9.47;8.53;;;;;;;;;;5052468;28;20785;-72
2022/05/25 05:40:48;;;;;;;10.23;9.23;;;;;;;;;;5052106;28;20561;-72
2022/05/25 05:43:16;;;;;;;11.93;9.93;;;;;;;;;;5051914;28;20202;-72
2022/05/25 05:45:46;;;;;;;10.57;9.13;;;;;;;;;;5054546;28;20215;-72
2022/05/25 05:48:18;;;;;;;9.60;8.70;;;;;;;;;;5055296;28;20238;-72
2022/05/25 05:50:48;;;;;;;10.73;8.97;;;;;;;;;;5054175;28;20769;-72
2022/05/25 05:53:18;;;;;;;11.77;9.33;;;;;;;;;;5054556;28;20233;-72
2022/05/25 05:55:47;;;;;;;10.43;9.40;;;;;;;;;;5054463;28;20297;-72
2022/05/25 05:58:16;;;;;;;10.33;9.23;;;;;;;;;;5046585;28;20231;-72
2022/05/25 06:00:44;;;;;;;9.70;8.70;;;;;;;;;;5054446;28;20214;-71
2022/05/25 06:03:13;;;;;;;9.57;8.40;;;;;;;;;;5055154;28;20214;-71
2022/05/25 06:05:44;;;;;;;9.87;8.50;;;;;;;;;;5054476;28;20200;-72
2022/05/25 06:08:14;;;;;;;10.10;9.07;;;;;;;;;;5054343;28;20250;-72
2022/05/25 06:10:42;;;;;;;12.27;8.80;;;;;;;;;;5054082;28;20211;-72
2022/05/25 06:13:11;;;;;;;10.43;9.23;;;;;;;;;;5054607;28;20210;-72
2022/05/25 06:21:13;;;;;;;10.20;8.57;;;;;;;;;;5054113;28;20261;-72
2022/05/25 06:23:42;;;;;;;9.83;7.97;;;;;;;;;;5054695;28;20211;-72
2022/05/25 06:26:10;;;;;;;10.10;7.73;;;;;;;;;;5054180;28;20211;-71
2022/05/25 06:28:39;;;;;;;8.80;7.70;;;;;;;;;;5054008;28;20219;-72
2022/05/25 06:31:07;;;;;;;9.60;7.73;;;;;;;;;;5054301;28;20264;-72
2022/05/25 06:33:37;;;;;;;9.03;8.13;;;;;;;;;;5054341;28;20211;-73
2022/05/25 06:36:17;;;;;;;8.80;7.90;;;;;;;;;;5053983;28;20651;-73
2022/05/25 06:38:46;;;;;;;8.10;7.30;;;;;;;;;;5054190;28;20227;-72
2022/05/25 06:41:14;;;;;;;9.77;7.73;;;;;;;;;;5053874;28;20659;-72
2022/05/25 06:43:43;;;;;;;8.50;7.70;;;;;;;;;;5053686;28;20606;-72
2022/05/25 06:46:13;;;;;;;8.17;7.37;;;;;;;;;;5053754;28;20214;-73
2022/05/25 06:48:48;;;;;;;8.00;7.10;;;;;;;;;;5054350;28;20223;-72
2022/05/25 06:51:19;;;;;;;6.93;6.07;;;;;;;;;;5053916;28;20211;-73
2022/05/25 06:53:47;;;;;;;6.60;5.90;;;;;;;;;;5054058;28;20573;-72
2022/05/25 06:56:16;;;;;;;8.60;6.30;;;;;;;;;;5053398;28;20208;-72
2022/05/25 06:58:45;;;;;;;7.50;6.47;;;;;;;;;;5053616;28;20346;-72
2022/05/25 07:01:13;;;;;;;7.80;5.70;;;;;;;;;;5053078;28;20214;-73
2022/05/25 07:03:41;;;;;;;6.93;6.00;;;;;;;;;;5053621;28;20618;-72
2022/05/25 07:06:11;;;;;;;6.90;5.70;;;;;;;;;;5053441;28;20218;-72
2022/05/25 07:08:40;;;;;;;7.80;6.00;;;;;;;;;;5053851;28;20731;-72
2022/05/25 07:11:11;;;;;;;8.17;6.13;;;;;;;;;;5052735;28;20210;-72
2022/05/25 07:13:39;;;;;;;7.17;5.60;;;;;;;;;;5053699;28;20219;-72
2022/05/25 07:16:09;;;;;;;7.10;6.33;;;;;;;;;;5053408;28;20694;-72
2022/05/25 07:18:37;;;;;;;7.23;6.40;;;;;;;;;;5053676;28;20593;-72
2022/05/25 07:21:07;;;;;;;7.23;5.80;;;;;;;;;;5052115;28;20207;-73
2022/05/25 07:23:36;;;;;;;5.93;5.23;;;;;;;;;;5052279;28;20206;-73
2022/05/25 07:26:06;;;;;;;5.77;5.27;;;;;;;;;;5052400;28;20269;-73
2022/05/25 07:28:35;;;;;;;7.07;4.83;;;;;;;;;;5053152;28;20230;-71
2022/05/25 07:31:04;;;;;;;6.07;4.87;;;;;;;;;;5053159;28;20221;-72
2022/05/25 07:33:34;;;;;;;6.57;4.90;;;;;;;;;;5053208;28;20261;-72
2022/05/25 07:36:03;;;;;;;5.27;4.77;;;;;;;;;;5052847;28;20210;-72
2022/05/25 07:38:31;;;;;;;5.70;4.63;;;;;;;;;;5052584;28;20701;-73
2022/05/25 07:41:01;;;;;;;5.83;4.40;;;;;;;;;;5052656;28;20281;-72
2022/05/25 07:43:33;;;;;;;6.93;4.85;;;;;;;;;;5053071;28;20658;-72
2022/05/25 07:46:02;;;;;;;7.00;4.65;;;;;;;;;;5052201;28;20230;-72
2022/05/25 07:48:30;;;;;;;6.00;4.82;;;;;;;;;;5053392;28;20227;-73
2022/05/25 07:50:59;;;;;;;8.77;5.47;;;;;;;;;;5052248;28;20207;-73
2022/05/25 07:56:13;;;;;;;8.75;5.53;;;;;;;;;;5053112;28;20545;-72
2022/05/25 07:58:44;;;;;;;7.43;5.47;;;;;;;;;;5053305;28;20226;-73
2022/05/25 08:01:14;;;;;;;6.20;5.53;;;;;;;;;;5052736;28;20222;-73
2022/05/25 08:06:30;;;;;;;5.97;5.18;;;;;;;;;;5052576;28;20689;-74
2022/05/25 08:08:58;;;;;;;6.15;5.55;;;;;;;;;;5052042;28;20227;-73
2022/05/25 08:11:29;;;;;;;6.75;6.05;;;;;;;;;;5052481;28;20199;-73
2022/05/25 08:13:58;;;;;;;9.23;6.85;;;;;;;;;;5052312;28;20212;-73
2022/05/25 08:16:27;;;;;;;9.35;7.40;;;;;;;;;;5052133;28;20211;-73
2022/05/25 08:18:55;;;;;;;7.90;7.10;;;;;;;;;;5052753;28;20633;-73
2022/05/25 08:21:24;;;;;;;8.35;7.10;;;;;;;;;;5052226;28;20750;-73
2022/05/25 08:24:12;;;;;;;8.20;7.40;;;;;;;;;;5051689;28;20199;-74
2022/05/25 08:26:42;;;;;;;8.07;7.30;;;;;;;;;;5052122;28;20611;-73
2022/05/25 08:29:11;;;;;;;8.02;6.72;;;;;;;;;;5052474;28;20226;-73
2022/05/25 08:31:40;;;;;;;7.68;6.72;;;;;;;;;;5052474;28;20777;-73
2022/05/25 08:34:08;;;;;;;7.10;6.40;;;;;;;;;;5056491;28;20210;-73
2022/05/25 08:36:37;;;;;;;7.07;6.38;;;;;;;;;;5056217;28;20221;-74
2022/05/25 08:39:05;;;;;;;6.93;6.10;;;;;;;;;;5055788;28;20700;-72
2022/05/25 08:41:37;;;;;;;7.18;5.85;;;;;;;;;;5056260;28;20223;-73
2022/05/25 08:44:07;;;;;;;6.75;5.82;;;;;;;;;;5056420;28;20214;-71
2022/05/25 08:46:36;;;;;;;6.82;6.10;;;;;;;;;;5056134;28;20662;-74
2022/05/25 08:49:10;;;;;;;6.75;6.05;;;;;;;;;;5056217;28;20226;-72
2022/05/25 08:51:42;;;;;;;7.70;5.35;;;;;;;;;;5055895;28;20200;-73
2022/05/25 08:54:11;;;;;;;7.55;4.53;;;;;;;;;;5055842;28;20206;-73
2022/05/25 08:56:42;;;;;;;6.35;4.90;;;;;;;;;;5055385;28;20214;-73
2022/05/25 08:59:14;;;;;;;5.40;4.80;;;;;;;;;;5055248;28;20234;-73
2022/05/25 09:01:44;;;;;;;5.72;4.90;;;;;;;;;;5055738;28;20268;-73
2022/05/25 09:04:18;;;;;;;6.30;4.78;;;;;;;;;;5056379;28;20211;-73
2022/05/25 09:06:50;;;;;;;5.55;4.68;;;;;;;;;;5056021;28;20283;-73
2022/05/25 09:09:21;;;;;;;4.95;4.22;;;;;;;;;;5056007;28;20694;-74
2022/05/25 09:11:50;;;;;;;4.25;3.72;;;;;;;;;;5054952;28;20211;-73
2022/05/25 09:14:22;;;;;;;5.30;4.10;;;;;;;;;;5036040;28;20381;-72
2022/05/25 09:16:53;;;;;;;4.97;3.72;;;;;;;;;;5052769;28;20202;-72
2022/05/25 09:19:23;;;;;;;4.80;4.35;;;;;;;;;;5055852;28;20211;-72
2022/05/25 09:21:53;;;;;;;4.78;4.38;;;;;;;;;;5055099;28;20253;-72
2022/05/25 09:24:23;;;;;;;4.32;3.95;;;;;;;;;;5036361;28;20559;-72
2022/05/25 09:26:54;;;;;;;3.60;3.30;;;;;;;;;;5055074;28;20608;-72
2022/05/25 09:29:23;;;;;;;3.65;3.33;;;;;;;;;;5049626;28;20203;-73
2022/05/25 09:31:54;;;;;;;4.43;2.90;;;;;;;;;;5055405;28;20248;-73
2022/05/25 09:34:44;;;;;;;3.83;3.17;;;;;;;;;;5035664;28;20661;-73
2022/05/25 09:37:16;;;;;;;4.10;3.70;;;;;;;;;;5054043;28;20215;-73
2022/05/25 09:39:53;;;;;;;6.38;4.10;;;;;;;;;;5055248;28;20199;-73
2022/05/25 09:42:23;;;;;;;5.07;4.32;;;;;;;;;;5054264;28;20212;-72
2022/05/25 09:44:56;;;;;;;6.07;4.10;;;;;;;;;;5058491;28;20192;-73
2022/05/25 09:47:37;;;;;;;4.80;4.07;;;;;;;;;;5056937;28;20306;-74
2022/05/25 09:50:06;;;;;;;4.53;3.55;;;;;;;;;;5054933;28;20824;-73
2022/05/25 09:52:54;;;;;;;4.45;3.85;;;;;;;;;;5055479;28;20265;-72
2022/05/25 09:55:26;;;;;;;6.15;3.75;;;;;;;;;;5056028;28;20207;-73
2022/05/25 09:57:57;;;;;;;3.92;3.55;;;;;;;;;;5055100;28;20226;-73
2022/05/25 10:00:40;;;;;;;4.47;4.07;;;;;;;;;;5054099;28;20219;-73
2022/05/25 10:03:11;;;;;;;4.47;3.80;;;;;;;;;;5055285;28;20257;-73
2022/05/25 10:05:54;;;;;;;4.07;3.55;;;;;;;;;;5055086;28;20211;-73
2022/05/25 10:08:27;;;;;;;3.63;2.88;;;;;;;;;;5047095;28;20227;-73
2022/05/25 10:10:59;;;;;;;3.47;3.17;;;;;;;;;;5054076;28;20646;-74
2022/05/25 10:13:29;;;;;;;4.05;3.00;;;;;;;;;;5054192;28;20589;-73
2022/05/25 10:16:01;;;;;;;2.80;2.50;;;;;;;;;;5053202;28;20214;-73
2022/05/25 10:18:38;;;;;;;3.83;2.40;;;;;;;;;;5054841;28;20227;-72
2022/05/25 10:21:09;;;;;;;3.05;2.63;;;;;;;;;;5054000;28;20686;-72
2022/05/25 10:23:42;;;;;;;3.85;3.08;;;;;;;;;;5054265;28;20222;-73
2022/05/25 10:26:15;;;;;;;3.70;3.05;;;;;;;;;;5054354;28;20290;-72
2022/05/25 10:28:46;;;;;;;4.05;3.00;;;;;;;;;;5054683;28;20230;-73
2022/05/25 10:40:22;;;;;;;2.13;2.03;;;;;;;;;;5037483;28;20178;-72
2022/05/25 10:42:57;;;;;;;2.40;2.20;;;;;;;;;;5050978;28;20215;-72
2022/05/25 10:45:32;;;;;;;4.15;2.58;;;;;;;;;;5051773;28;20218;-72
2022/05/25 10:48:13;;;;;;;3.47;2.47;;;;;;;;;;5051057;28;20234;-73
2022/05/25 10:50:47;;;;;;;3.45;2.60;;;;;;;;;;5052969;28;20211;-73
2022/05/25 10:53:38;;;;;;;2.42;2.20;;;;;;;;;;5048317;28;20253;-73
2022/05/25 10:56:13;;;;;;;2.33;2.13;;;;;;;;;;5053691;28;20199;-73
2022/05/25 10:58:57;;;;;;;2.30;2.08;;;;;;;;;;5053383;28;20710;-73
2022/05/25 11:01:31;;;;;;;4.65;2.55;;;;;;;;;;5053523;28;20690;-73
2022/05/25 11:04:11;;;;;;;2.58;2.38;;;;;;;;;;5054280;28;20203;-73
2022/05/25 11:06:49;;;;;;;2.65;1.88;;;;;;;;;;5053397;28;20659;-73
2022/05/25 11:09:22;;;;;;;2.33;2.00;;;;;;;;;;5053893;28;20584;-72
2022/05/25 11:11:55;;;;;;;2.33;2.13;;;;;;;;;;5053627;28;20647;-72
2022/05/25 11:14:32;;;;;;;2.40;2.20;;;;;;;;;;5053065;28;20605;-73
2022/05/25 11:17:05;;;;;;;2.17;1.77;;;;;;;;;;5053081;28;20221;-74
2022/05/25 11:19:39;;;;;;;2.35;2.00;;;;;;;;;;5053635;28;20540;-73
2022/05/25 11:22:17;;;;;;;1.70;1.60;;;;;;;;;;5052933;28;20226;-73
2022/05/25 11:25:01;;;;;;;2.22;1.55;;;;;;;;;;5053533;28;20221;-72
2022/05/25 11:27:36;;;;;;;2.53;1.42;;;;;;;;;;5052090;28;20237;-73
2022/05/25 11:30:08;;;;;;;1.80;1.48;;;;;;;;;;5053218;28;20203;-74
2022/05/25 11:32:43;;;;;;;1.73;1.40;;;;;;;;;;5053383;28;20199;-73
2022/05/25 11:35:21;;;;;;;2.85;1.40;;;;;;;;;;5052496;28;20203;-73
2022/05/25 11:38:06;;;;;;;1.17;1.08;;;;;;;;;;5050521;28;20248;-72
2022/05/25 11:40:43;;;;;;;1.40;1.30;;;;;;;;;;5053164;28;20203;-73
2022/05/25 11:43:31;;;;;;;2.80;1.40;;;;;;;;;;5052515;28;20229;-72
2022/05/25 11:46:03;;;;;;;4.53;1.50;;;;;;;;;;5052636;28;20219;-73
2022/05/25 11:49:13;;;;;;;1.85;1.35;;;;;;;;;;5053300;28;20304;-73
2022/05/25 11:51:47;;;;;;;2.55;1.30;;;;;;;;;;5052698;28;20203;-73
2022/05/25 11:54:24;;;;;;;2.42;1.20;;;;;;;;;;5053364;28;20207;-73
2022/05/25 11:56:56;;;;;;;1.83;1.40;;;;;;;;;;5053013;28;20497;-72
2022/05/25 11:59:40;;;;;;;2.97;1.38;;;;;;;;;;5040333;28;20276;-73
2022/05/25 12:02:17;;;;;;;3.67;1.27;;;;;;;;;;5052753;28;20269;-73
2022/05/25 12:04:54;;;;;;;1.75;1.30;;;;;;;;;;5053295;28;20578;-74
2022/05/25 12:07:31;;;;;;;1.70;1.50;;;;;;;;;;5052202;28;20226;-73
2022/05/25 12:10:17;;;;;;;3.35;1.25;;;;;;;;;;5052833;28;20268;-73
2022/05/25 12:12:47;;;;;;;1.85;1.17;;;;;;;;;;5047540;28;20654;-73
2022/05/25 12:15:20;;;;;;;1.50;1.10;;;;;;;;;;5051591;28;20560;-73
2022/05/25 12:18:01;;;;;;;1.20;1.10;;;;;;;;;;5047347;28;20227;-73
2022/05/25 12:20:33;;;;;;;2.95;1.55;;;;;;;;;;5050969;28;20298;-74
2022/05/25 12:23:03;;;;;;;2.35;1.20;;;;;;;;;;5052088;28;20227;-72
2022/05/25 12:25:35;;;;;;;2.55;1.40;;;;;;;;;;5050960;28;20196;-73
2022/05/25 12:28:03;;;;;;;1.65;1.30;;;;;;;;;;5047895;28;20219;-72
2022/05/25 12:30:34;;;;;;;4.50;1.30;;;;;;;;;;5042284;28;20210;-74
2022/05/25 12:33:04;;;;;;;2.58;1.40;;;;;;;;;;5052607;28;20696;-74
2022/05/25 12:35:34;;;;;;;2.00;1.45;;;;;;;;;;5052069;28;20654;-75
2022/05/25 12:38:04;;;;;;;2.30;1.10;;;;;;;;;;5051288;28;20219;-73
2022/05/25 12:40:45;;;;;;;1.55;1.20;;;;;;;;;;5047387;28;20203;-72
2022/05/25 12:43:32;;;;;;;2.22;1.10;;;;;;;;;;5050222;28;20226;-73
2022/05/25 12:49:04;;;;;;;2.38;1.40;;;;;;;;;;4965027;28;20312;-72
2022/05/25 12:51:36;;;;;;;2.47;1.40;;;;;;;;;;4951042;28;20211;-73
2022/05/25 12:54:06;;;;;;;1.90;1.40;;;;;;;;;;5001006;28;20200;-73
2022/05/25 12:56:37;;;;;;;2.25;1.52;;;;;;;;;;5051014;28;20203;-72
2022/05/25 12:59:11;;;;;;;2.58;1.40;;;;;;;;;;5052333;28;20227;-73
2022/05/25 13:01:40;;;;;;;5.43;1.50;;;;;;;;;;5050477;28;20204;-73
2022/05/25 13:04:42;;;;;;;2.00;1.13;;;;;;;;;;5052698;28;20211;-73
2022/05/25 13:07:31;;;;;;;3.03;1.40;;;;;;;;;;5051781;28;20209;-74
2022/05/25 13:10:00;;;;;;;2.13;1.30;;;;;;;;;;5052099;28;20541;-72
2022/05/25 13:12:51;;;;;;;2.30;1.48;;;;;;;;;;5050104;28;20195;-72
2022/05/25 13:15:42;;;;;;;2.92;1.33;;;;;;;;;;5051607;28;21100;-72
2022/05/25 13:18:30;;;;;;;2.30;1.48;;;;;;;;;;5051315;28;20230;-73
2022/05/25 13:20:59;;;;;;;2.15;1.30;;;;;;;;;;5054498;28;20206;-72
2022/05/25 13:23:58;;;;;;;2.60;1.40;;;;;;;;;;5055336;28;20698;-72
2022/05/25 13:26:34;;;;;;;1.70;1.02;;;;;;;;;;4991851;28;20700;-73
2022/05/25 13:29:09;;;;;;;1.40;1.17;;;;;;;;;;5045546;28;20266;-72
2022/05/25 13:31:42;;;;;;;2.17;1.50;;;;;;;;;;5048556;28;20276;-74
2022/05/25 13:34:11;;;;;;;2.22;1.40;;;;;;;;;;5054475;28;20202;-73
2022/05/25 13:36:44;;;;;;;2.65;1.50;;;;;;;;;;5049919;28;20591;-74
2022/05/25 13:39:16;;;;;;;1.83;1.50;;;;;;;;;;5054495;28;20219;-72
2022/05/25 13:41:46;;;;;;;3.28;1.60;;;;;;;;;;5054698;28;20203;-72
2022/05/25 13:44:18;;;;;;;2.97;1.60;;;;;;;;;;5048358;28;20226;-73
2022/05/25 13:46:52;;;;;;;3.55;1.50;;;;;;;;;;5054447;28;20219;-73
2022/05/25 13:49:23;;;;;;;2.90;1.30;;;;;;;;;;5050964;28;20576;-73
2022/05/25 13:51:52;;;;;;;1.80;1.40;;;;;;;;;;5050855;28;20211;-72
2022/05/25 13:54:26;;;;;;;2.50;1.30;;;;;;;;;;5050893;28;20235;-73
2022/05/25 13:57:13;;;;;;;1.65;1.38;;;;;;;;;;5053296;28;20214;-72
2022/05/25 13:59:43;;;;;;;1.73;1.17;;;;;;;;;;5053768;28;20260;-73
2022/05/25 14:02:25;;;;;;;2.97;1.10;;;;;;;;;;5053688;28;20195;-72
2022/05/25 14:04:55;;;;;;;1.52;1.20;;;;;;;;;;5053248;28;20206;-72
2022/05/25 14:07:31;;;;;;;3.00;1.20;;;;;;;;;;5053990;28;20315;-73
2022/05/25 14:12:49;;;;;;;2.30;1.27;;;;;;;;;;5050844;28;20208;-73
2022/05/25 14:15:20;;;;;;;3.25;1.38;;;;;;;;;;5054590;28;20203;-72
2022/05/25 14:17:59;;;;;;;1.35;1.02;;;;;;;;;;5046388;28;20223;-72
2022/05/25 14:20:27;;;;;;;1.88;1.15;;;;;;;;;;5041050;28;20214;-73
2022/05/25 14:22:56;;;;;;;3.45;1.30;;;;;;;;;;5051871;28;20636;-74
2022/05/25 14:25:29;;;;;;;1.20;1.10;;;;;;;;;;5051580;28;20221;-74
2022/05/25 14:27:58;;;;;;;1.63;1.17;;;;;;;;;;5043206;28;20254;-73
2022/05/25 14:30:29;;;;;;;2.47;1.17;;;;;;;;;;5039561;28;20235;-74
2022/05/25 14:33:00;;;;;;;2.38;1.15;;;;;;;;;;5053892;28;20195;-73
2022/05/25 14:35:30;;;;;;;1.65;1.08;;;;;;;;;;5052929;28;20286;-73
2022/05/25 14:38:00;;;;;;;1.98;1.38;;;;;;;;;;5050838;28;20698;-73
2022/05/25 14:40:50;;;;;;;2.85;1.10;;;;;;;;;;5051898;28;20203;-72
2022/05/25 14:43:35;;;;;;;1.65;1.10;;;;;;;;;;5043958;28;20212;-73
2022/05/25 14:46:07;;;;;;;1.88;1.30;;;;;;;;;;5050545;28;20265;-73
2022/05/25 14:48:41;;;;;;;3.03;1.00;;;;;;;;;;5051966;28;20222;-72
2022/05/25 14:51:10;;;;;;;2.97;1.10;;;;;;;;;;5048734;28;20203;-73
2022/05/25 14:53:38;;;;;;;2.40;1.02;;;;;;;;;;5053323;28;20201;-72
2022/05/25 14:56:10;;;;;;;2.42;1.15;;;;;;;;;;5049716;28;20218;-72
2022/05/25 14:58:41;;;;;;;3.05;1.13;;;;;;;;;;5045314;28;20215;-73
2022/05/25 15:01:14;;;;;;;2.75;1.08;;;;;;;;;;5044418;28;20261;-72
2022/05/25 15:04:00;;;;;;;3.28;1.00;;;;;;;;;;5043197;28;20226;-72
2022/05/25 15:06:29;;;;;;;1.55;0.98;;;;;;;;;;5049576;28;20215;-72
2022/05/25 15:09:06;;;;;;;1.58;1.00;;;;;;;;;;5043818;28;20258;-73
2022/05/25 15:11:37;;;;;;;3.42;1.40;;;;;;;;;;5042399;28;20574;-72
2022/05/25 15:19:47;;;;;;;2.20;1.20;;;;;;;;;;5038550;28;20658;-73
2022/05/25 15:22:17;;;;;;;4.18;2.00;;;;;;;;;;5048948;28;20210;-73
2022/05/25 15:24:58;;;;;;;1.42;1.20;;;;;;;;;;5044896;28;20563;-72
2022/05/25 15:27:36;;;;;;;2.38;1.15;;;;;;;;;;5052162;28;20231;-72
2022/05/25 15:30:20;;;;;;;1.45;1.00;;;;;;;;;;5040710;28;20215;-72
2022/05/25 15:32:50;;;;;;;1.67;0.85;;;;;;;;;;5045586;28;20241;-73
2022/05/25 15:35:18;;;;;;;2.28;1.00;;;;;;;;;;5044443;28;20211;-74
2022/05/25 15:37:53;;;;;;;1.05;0.93;;;;;;;;;;5052007;28;20640;-73
2022/05/25 15:40:29;;;;;;;2.45;0.98;;;;;;;;;;5046885;28;20565;-73
2022/05/25 15:42:59;;;;;;;2.05;1.10;;;;;;;;;;5049350;28;20203;-71
2022/05/25 15:45:28;;;;;;;1.50;1.00;;;;;;;;;;5047686;28;20326;-72
2022/05/25 15:48:00;;;;;;;1.00;0.90;;;;;;;;;;5051044;28;20222;-72
2022/05/25 15:50:28;;;;;;;3.88;0.93;;;;;;;;;;5045951;28;20214;-72
2022/05/25 15:52:57;;;;;;;1.35;1.00;;;;;;;;;;5051234;28;20245;-72